sensor_id;sensor_type;location;lat;lon;timestamp;pressure;altitude;pressure_sealevel;temperature;humidity
6433;BME280;3249;42.690;23.260;2024-03-22T00:02:18;94294.22;;;5.10;67.34
6433;BME280;3249;42.690;23.260;2024-03-22T00:04:47;94292.53;;;4.96;69.30
6433;BME280;3249;42.690;23.260;2024-03-22T00:07:13;94292.47;;;5.11;70.28
6433;BME280;3249;42.690;23.260;2024-03-22T00:09:40;94293.91;;;4.98;72.91
6433;BME280;3249;42.690;23.260;2024-03-22T00:12:07;94283.09;;;4.96;71.36
6433;BME280;3249;42.690;23.260;2024-03-22T00:14:36;94291.53;;;4.97;72.46
6433;BME280;3249;42.690;23.260;2024-03-22T00:17:03;94294.16;;;5.03;68.86
6433;BME280;3249;42.690;23.260;2024-03-22T00:19:29;94292.75;;;5.01;71.53
6433;BME280;3249;42.690;23.260;2024-03-22T00:21:55;94291.91;;;4.94;70.95
6433;BME280;3249;42.690;23.260;2024-03-22T00:24:22;94290.69;;;4.90;70.16
6433;BME280;3249;42.690;23.260;2024-03-22T00:26:48;94286.03;;;4.93;69.50
6433;BME280;3249;42.690;23.260;2024-03-22T00:29:15;94286.19;;;4.56;73.40
6433;BME280;3249;42.690;23.260;2024-03-22T00:31:44;94285.81;;;4.38;72.77
6433;BME280;3249;42.690;23.260;2024-03-22T00:34:10;94285.59;;;4.54;71.84
6433;BME280;3249;42.690;23.260;2024-03-22T00:36:37;94291.84;;;4.52;72.63
6433;BME280;3249;42.690;23.260;2024-03-22T00:39:03;94285.78;;;4.53;73.39
6433;BME280;3249;42.690;23.260;2024-03-22T00:41:30;94293.41;;;4.17;75.62
6433;BME280;3249;42.690;23.260;2024-03-22T00:43:56;94293.94;;;3.84;80.39
6433;BME280;3249;42.690;23.260;2024-03-22T00:46:23;94268.97;;;3.94;76.05
6433;BME280;3249;42.690;23.260;2024-03-22T00:48:52;94277.94;;;4.04;77.62
6433;BME280;3249;42.690;23.260;2024-03-22T00:51:18;94287.41;;;3.81;79.67
6433;BME280;3249;42.690;23.260;2024-03-22T00:53:45;94288.03;;;4.12;78.08
6433;BME280;3249;42.690;23.260;2024-03-22T00:56:12;94295.16;;;4.17;74.84
6433;BME280;3249;42.690;23.260;2024-03-22T00:58:38;94289.06;;;4.18;73.41
6433;BME280;3249;42.690;23.260;2024-03-22T01:01:05;94290.50;;;4.06;76.35
6433;BME280;3249;42.690;23.260;2024-03-22T01:03:31;94291.91;;;3.94;78.48
6433;BME280;3249;42.690;23.260;2024-03-22T01:06:00;94296.44;;;3.69;80.90
6433;BME280;3249;42.690;23.260;2024-03-22T01:08:27;94289.44;;;3.86;79.79
6433;BME280;3249;42.690;23.260;2024-03-22T01:10:53;94275.56;;;3.74;80.36
6433;BME280;3249;42.690;23.260;2024-03-22T01:13:20;94288.47;;;3.72;82.28
6433;BME280;3249;42.690;23.260;2024-03-22T01:15:46;94272.53;;;3.41;84.88
6433;BME280;3249;42.690;23.260;2024-03-22T01:18:13;94286.09;;;3.71;82.28
6433;BME280;3249;42.690;23.260;2024-03-22T01:20:39;94294.69;;;3.70;84.01
6433;BME280;3249;42.690;23.260;2024-03-22T01:23:08;94285.81;;;3.51;85.32
6433;BME280;3249;42.690;23.260;2024-03-22T01:25:35;94283.63;;;3.63;84.32
6433;BME280;3249;42.690;23.260;2024-03-22T01:28:01;94279.91;;;3.36;87.05
6433;BME280;3249;42.690;23.260;2024-03-22T01:30:28;94266.22;;;3.00;90.25
6433;BME280;3249;42.690;23.260;2024-03-22T01:32:54;94280.66;;;3.00;92.13
6433;BME280;3249;42.690;23.260;2024-03-22T01:35:21;94284.75;;;3.09;90.94
6433;BME280;3249;42.690;23.260;2024-03-22T01:37:47;94291.53;;;2.94;94.28
6433;BME280;3249;42.690;23.260;2024-03-22T01:40:17;94282.31;;;2.93;94.72
6433;BME280;3249;42.690;23.260;2024-03-22T01:42:43;94280.91;;;3.13;92.90
6433;BME280;3249;42.690;23.260;2024-03-22T01:45:11;94282.91;;;3.17;92.33
6433;BME280;3249;42.690;23.260;2024-03-22T01:47:39;94277.84;;;2.95;95.04
6433;BME280;3249;42.690;23.260;2024-03-22T01:50:08;94217.41;;;2.60;94.92
6433;BME280;3249;42.690;23.260;2024-03-22T01:52:36;94281.63;;;2.99;93.90
6433;BME280;3249;42.690;23.260;2024-03-22T01:55:03;94270.53;;;2.92;94.23
6433;BME280;3249;42.690;23.260;2024-03-22T01:57:33;94281.41;;;3.08;92.67
6433;BME280;3249;42.690;23.260;2024-03-22T02:00:00;94234.91;;;3.00;92.15
6433;BME280;3249;42.690;23.260;2024-03-22T02:02:26;94279.19;;;3.28;94.44
6433;BME280;3249;42.690;23.260;2024-03-22T02:04:53;94271.03;;;2.95;96.76
6433;BME280;3249;42.690;23.260;2024-03-22T02:07:19;94273.28;;;3.13;95.24
6433;BME280;3249;42.690;23.260;2024-03-22T02:09:46;94278.69;;;3.10;94.67
6433;BME280;3249;42.690;23.260;2024-03-22T02:12:13;94277.69;;;2.96;94.40
6433;BME280;3249;42.690;23.260;2024-03-22T02:14:42;94275.63;;;2.92;94.79
6433;BME280;3249;42.690;23.260;2024-03-22T02:17:08;94268.19;;;3.13;91.99
6433;BME280;3249;42.690;23.260;2024-03-22T02:19:35;94270.81;;;3.19;89.17
6433;BME280;3249;42.690;23.260;2024-03-22T02:22:01;94271.81;;;3.33;86.94
6433;BME280;3249;42.690;23.260;2024-03-22T02:24:46;94272.88;;;3.24;90.04
6433;BME280;3249;42.690;23.260;2024-03-22T02:27:12;94276.72;;;2.97;93.84
6433;BME280;3249;42.690;23.260;2024-03-22T02:29:39;94277.50;;;2.98;93.09
6433;BME280;3249;42.690;23.260;2024-03-22T02:32:06;94255.88;;;3.02;91.75
6433;BME280;3249;42.690;23.260;2024-03-22T02:34:32;94284.16;;;2.99;92.73
6433;BME280;3249;42.690;23.260;2024-03-22T02:36:59;94285.19;;;3.12;91.79
6433;BME280;3249;42.690;23.260;2024-03-22T02:39:29;94247.19;;;2.74;90.56
6433;BME280;3249;42.690;23.260;2024-03-22T02:42:01;94291.06;;;3.13;90.34
6433;BME280;3249;42.690;23.260;2024-03-22T02:44:28;94286.06;;;2.82;91.54
6433;BME280;3249;42.690;23.260;2024-03-22T02:46:54;94288.69;;;2.36;96.06
6433;BME280;3249;42.690;23.260;2024-03-22T02:49:24;94296.53;;;2.57;92.07
6433;BME280;3249;42.690;23.260;2024-03-22T02:51:51;94301.69;;;2.71;88.26
6433;BME280;3249;42.690;23.260;2024-03-22T02:54:18;94299.31;;;2.70;90.72
6433;BME280;3249;42.690;23.260;2024-03-22T02:56:44;94297.03;;;2.75;93.20
6433;BME280;3249;42.690;23.260;2024-03-22T02:59:13;94309.25;;;2.79;96.04
6433;BME280;3249;42.690;23.260;2024-03-22T03:01:58;94285.31;;;2.74;95.02
6433;BME280;3249;42.690;23.260;2024-03-22T03:04:37;94310.22;;;3.01;94.33
6433;BME280;3249;42.690;23.260;2024-03-22T03:07:03;94305.47;;;2.98;94.84
6433;BME280;3249;42.690;23.260;2024-03-22T03:09:30;94302.94;;;2.98;94.21
6433;BME280;3249;42.690;23.260;2024-03-22T03:12:05;94278.19;;;2.92;94.38
6433;BME280;3249;42.690;23.260;2024-03-22T03:14:38;94318.06;;;3.14;93.38
6433;BME280;3249;42.690;23.260;2024-03-22T03:17:05;94310.06;;;3.02;96.76
6433;BME280;3249;42.690;23.260;2024-03-22T03:19:31;94319.44;;;3.02;97.71
6433;BME280;3249;42.690;23.260;2024-03-22T03:21:58;94313.16;;;3.12;96.77
6433;BME280;3249;42.690;23.260;2024-03-22T03:24:27;94320.84;;;3.04;97.42
6433;BME280;3249;42.690;23.260;2024-03-22T03:26:54;94322.34;;;2.68;100.00
6433;BME280;3249;42.690;23.260;2024-03-22T03:29:20;94327.66;;;2.81;100.00
6433;BME280;3249;42.690;23.260;2024-03-22T03:31:49;94332.84;;;2.88;100.00
6433;BME280;3249;42.690;23.260;2024-03-22T03:34:16;94307.44;;;2.88;98.65
6433;BME280;3249;42.690;23.260;2024-03-22T03:36:45;94332.28;;;2.78;100.00
6433;BME280;3249;42.690;23.260;2024-03-22T03:39:12;94333.84;;;2.79;98.66
6433;BME280;3249;42.690;23.260;2024-03-22T03:41:38;94319.66;;;2.62;99.31
6433;BME280;3249;42.690;23.260;2024-03-22T03:44:07;94329.16;;;2.68;100.00
6433;BME280;3249;42.690;23.260;2024-03-22T03:46:33;94329.47;;;2.73;100.00
6433;BME280;3249;42.690;23.260;2024-03-22T03:49:03;94332.91;;;2.80;99.64
6433;BME280;3249;42.690;23.260;2024-03-22T03:51:29;94335.09;;;2.83;100.00
6433;BME280;3249;42.690;23.260;2024-03-22T03:53:55;94344.63;;;2.89;100.00
6433;BME280;3249;42.690;23.260;2024-03-22T03:56:22;94351.78;;;2.55;100.00
6433;BME280;3249;42.690;23.260;2024-03-22T03:58:48;94348.88;;;2.66;100.00
6433;BME280;3249;42.690;23.260;2024-03-22T04:01:15;94350.78;;;2.64;100.00
6433;BME280;3249;42.690;23.260;2024-03-22T04:03:41;94353.16;;;2.65;100.00
6433;BME280;3249;42.690;23.260;2024-03-22T04:06:10;94359.31;;;2.40;100.00
6433;BME280;3249;42.690;23.260;2024-03-22T04:08:39;94363.53;;;2.48;100.00
6433;BME280;3249;42.690;23.260;2024-03-22T04:11:05;94359.50;;;2.31;100.00
6433;BME280;3249;42.690;23.260;2024-03-22T04:13:32;94362.41;;;2.50;100.00
6433;BME280;3249;42.690;23.260;2024-03-22T04:15:58;94357.53;;;2.49;100.00
6433;BME280;3249;42.690;23.260;2024-03-22T04:18:25;94322.69;;;2.27;100.00
6433;BME280;3249;42.690;23.260;2024-03-22T04:20:56;94359.09;;;2.50;100.00
6433;BME280;3249;42.690;23.260;2024-03-22T04:23:25;94362.56;;;2.57;100.00
6433;BME280;3249;42.690;23.260;2024-03-22T04:25:53;94369.31;;;2.34;100.00
6433;BME280;3249;42.690;23.260;2024-03-22T04:28:20;94355.44;;;2.52;100.00
6433;BME280;3249;42.690;23.260;2024-03-22T04:30:55;94357.19;;;2.52;100.00
6433;BME280;3249;42.690;23.260;2024-03-22T04:33:21;94364.84;;;2.44;100.00
6433;BME280;3249;42.690;23.260;2024-03-22T04:35:48;94367.59;;;2.26;100.00
6433;BME280;3249;42.690;23.260;2024-03-22T04:38:15;94374.75;;;2.23;100.00
6433;BME280;3249;42.690;23.260;2024-03-22T04:40:44;94379.69;;;2.16;100.00
6433;BME280;3249;42.690;23.260;2024-03-22T04:43:11;94372.84;;;2.25;100.00
6433;BME280;3249;42.690;23.260;2024-03-22T04:45:37;94378.53;;;2.27;100.00
6433;BME280;3249;42.690;23.260;2024-03-22T04:48:05;94383.63;;;2.27;100.00
6433;BME280;3249;42.690;23.260;2024-03-22T04:50:31;94387.72;;;2.36;100.00
6433;BME280;3249;42.690;23.260;2024-03-22T04:52:58;94391.63;;;2.54;100.00
6433;BME280;3249;42.690;23.260;2024-03-22T04:55:24;94382.56;;;2.52;100.00
6433;BME280;3249;42.690;23.260;2024-03-22T04:57:54;94391.69;;;2.77;100.00
6433;BME280;3249;42.690;23.260;2024-03-22T05:00:21;94386.38;;;2.94;100.00
6433;BME280;3249;42.690;23.260;2024-03-22T05:02:47;94390.00;;;2.92;100.00
6433;BME280;3249;42.690;23.260;2024-03-22T05:05:14;94391.53;;;2.78;100.00
6433;BME280;3249;42.690;23.260;2024-03-22T05:07:40;94399.47;;;3.06;100.00
6433;BME280;3249;42.690;23.260;2024-03-22T05:10:07;94399.09;;;3.17;100.00
6433;BME280;3249;42.690;23.260;2024-03-22T05:12:34;94398.53;;;3.29;100.00
6433;BME280;3249;42.690;23.260;2024-03-22T05:15:05;94391.75;;;3.44;100.00
6433;BME280;3249;42.690;23.260;2024-03-22T05:17:32;94406.47;;;3.57;99.38
6433;BME280;3249;42.690;23.260;2024-03-22T05:19:58;94404.63;;;3.65;98.22
6433;BME280;3249;42.690;23.260;2024-03-22T05:22:25;94407.66;;;3.46;99.31
6433;BME280;3249;42.690;23.260;2024-03-22T05:24:51;94404.75;;;3.49;100.00
6433;BME280;3249;42.690;23.260;2024-03-22T05:27:18;94413.50;;;3.69;98.25
6433;BME280;3249;42.690;23.260;2024-03-22T05:29:45;94416.63;;;3.79;97.41
6433;BME280;3249;42.690;23.260;2024-03-22T05:32:14;94413.41;;;3.63;98.91
6433;BME280;3249;42.690;23.260;2024-03-22T05:34:40;94417.75;;;3.77;96.84
6433;BME280;3249;42.690;23.260;2024-03-22T05:37:06;94418.25;;;3.72;96.29
6433;BME280;3249;42.690;23.260;2024-03-22T05:39:33;94417.97;;;3.90;94.97
6433;BME280;3249;42.690;23.260;2024-03-22T05:42:00;94423.25;;;4.03;94.36
6433;BME280;3249;42.690;23.260;2024-03-22T05:44:27;94422.13;;;4.05;92.27
6433;BME280;3249;42.690;23.260;2024-03-22T05:46:53;94432.78;;;4.38;90.79
6433;BME280;3249;42.690;23.260;2024-03-22T05:49:22;94428.06;;;4.64;87.46
6433;BME280;3249;42.690;23.260;2024-03-22T05:51:49;94436.50;;;4.50;89.12
6433;BME280;3249;42.690;23.260;2024-03-22T05:54:15;94435.63;;;4.72;88.68
6433;BME280;3249;42.690;23.260;2024-03-22T05:56:42;94441.84;;;4.84;84.88
6433;BME280;3249;42.690;23.260;2024-03-22T05:59:08;94446.41;;;4.88;81.88
6433;BME280;3249;42.690;23.260;2024-03-22T06:01:35;94434.97;;;5.14;76.32
6433;BME280;3249;42.690;23.260;2024-03-22T06:04:01;94438.97;;;5.23;75.16
6433;BME280;3249;42.690;23.260;2024-03-22T06:06:31;94444.72;;;5.25;74.58
6433;BME280;3249;42.690;23.260;2024-03-22T06:08:58;94449.16;;;5.58;72.34
6433;BME280;3249;42.690;23.260;2024-03-22T06:11:24;94452.28;;;5.75;72.01
6433;BME280;3249;42.690;23.260;2024-03-22T06:13:51;94452.09;;;5.76;70.38
6433;BME280;3249;42.690;23.260;2024-03-22T06:16:17;94448.09;;;5.67;71.93
6433;BME280;3249;42.690;23.260;2024-03-22T06:18:44;94448.28;;;5.66;70.27
6433;BME280;3249;42.690;23.260;2024-03-22T06:21:11;94453.09;;;5.75;67.21
6433;BME280;3249;42.690;23.260;2024-03-22T06:23:40;94456.31;;;5.84;66.30
6433;BME280;3249;42.690;23.260;2024-03-22T06:26:06;94460.75;;;5.75;67.40
6433;BME280;3249;42.690;23.260;2024-03-22T06:28:33;94454.16;;;5.81;65.99
6433;BME280;3249;42.690;23.260;2024-03-22T06:30:59;94454.38;;;6.07;62.65
6433;BME280;3249;42.690;23.260;2024-03-22T06:33:26;94447.78;;;6.19;60.80
6433;BME280;3249;42.690;23.260;2024-03-22T06:35:52;94460.28;;;6.07;60.46
6433;BME280;3249;42.690;23.260;2024-03-22T06:38:19;94462.00;;;6.28;58.96
6433;BME280;3249;42.690;23.260;2024-03-22T06:40:48;94460.34;;;6.41;58.45
6433;BME280;3249;42.690;23.260;2024-03-22T06:43:14;94471.03;;;6.51;56.81
6433;BME280;3249;42.690;23.260;2024-03-22T06:45:41;94465.16;;;6.85;54.98
6433;BME280;3249;42.690;23.260;2024-03-22T06:48:08;94468.66;;;6.50;56.80
6433;BME280;3249;42.690;23.260;2024-03-22T06:50:34;94478.06;;;6.70;56.13
6433;BME280;3249;42.690;23.260;2024-03-22T06:53:01;94477.09;;;6.78;54.78
6433;BME280;3249;42.690;23.260;2024-03-22T06:55:27;94478.16;;;6.90;53.42
6433;BME280;3249;42.690;23.260;2024-03-22T06:57:56;94475.59;;;6.56;54.60
6433;BME280;3249;42.690;23.260;2024-03-22T07:00:23;94475.63;;;6.62;55.03
6433;BME280;3249;42.690;23.260;2024-03-22T07:02:49;94484.53;;;6.66;55.28
6433;BME280;3249;42.690;23.260;2024-03-22T07:05:15;94486.56;;;6.50;54.08
6433;BME280;3249;42.690;23.260;2024-03-22T07:07:42;94489.00;;;6.64;55.28
6433;BME280;3249;42.690;23.260;2024-03-22T07:10:09;94485.69;;;6.64;54.32
6433;BME280;3249;42.690;23.260;2024-03-22T07:12:36;94492.56;;;6.97;52.63
6433;BME280;3249;42.690;23.260;2024-03-22T07:15:06;94484.78;;;6.78;54.17
6433;BME280;3249;42.690;23.260;2024-03-22T07:17:32;94490.50;;;7.14;53.82
6433;BME280;3249;42.690;23.260;2024-03-22T07:20:01;94493.84;;;7.14;53.28
6433;BME280;3249;42.690;23.260;2024-03-22T07:22:28;94492.88;;;7.15;51.90
6433;BME280;3249;42.690;23.260;2024-03-22T07:24:55;94503.78;;;7.37;50.56
6433;BME280;3249;42.690;23.260;2024-03-22T07:27:21;94493.91;;;7.27;51.16
6433;BME280;3249;42.690;23.260;2024-03-22T07:29:48;94492.88;;;7.22;51.88
6433;BME280;3249;42.690;23.260;2024-03-22T07:32:19;94486.44;;;7.32;50.76
6433;BME280;3249;42.690;23.260;2024-03-22T07:34:46;94488.63;;;7.35;52.31
6433;BME280;3249;42.690;23.260;2024-03-22T07:37:12;94490.59;;;7.33;51.36
6433;BME280;3249;42.690;23.260;2024-03-22T07:39:39;94494.59;;;7.49;51.82
6433;BME280;3249;42.690;23.260;2024-03-22T07:42:06;94498.59;;;7.71;50.20
6433;BME280;3249;42.690;23.260;2024-03-22T07:44:32;94494.06;;;7.66;50.00
6433;BME280;3249;42.690;23.260;2024-03-22T07:46:59;94498.81;;;7.76;49.69
6433;BME280;3249;42.690;23.260;2024-03-22T07:49:28;94483.28;;;7.97;48.38
6433;BME280;3249;42.690;23.260;2024-03-22T07:51:54;94503.78;;;8.10;47.44
6433;BME280;3249;42.690;23.260;2024-03-22T07:54:21;94498.28;;;8.06;47.52
6433;BME280;3249;42.690;23.260;2024-03-22T07:56:47;94499.13;;;8.26;47.54
6433;BME280;3249;42.690;23.260;2024-03-22T07:59:15;94505.25;;;8.45;46.18
6433;BME280;3249;42.690;23.260;2024-03-22T08:01:41;94496.75;;;8.38;46.43
6433;BME280;3249;42.690;23.260;2024-03-22T08:04:08;94505.63;;;8.61;45.50
6433;BME280;3249;42.690;23.260;2024-03-22T08:06:37;94504.66;;;8.49;46.12
6433;BME280;3249;42.690;23.260;2024-03-22T08:09:04;94508.41;;;8.47;46.37
6433;BME280;3249;42.690;23.260;2024-03-22T08:11:30;94506.00;;;8.78;47.01
6433;BME280;3249;42.690;23.260;2024-03-22T08:13:57;94496.13;;;8.94;45.30
6433;BME280;3249;42.690;23.260;2024-03-22T08:16:24;94507.75;;;9.03;44.38
6433;BME280;3249;42.690;23.260;2024-03-22T08:18:51;94505.75;;;9.18;43.62
6433;BME280;3249;42.690;23.260;2024-03-22T08:21:18;94490.50;;;9.30;42.85
6433;BME280;3249;42.690;23.260;2024-03-22T08:23:47;94504.78;;;9.06;42.86
6433;BME280;3249;42.690;23.260;2024-03-22T08:26:13;94498.28;;;8.97;43.17
6433;BME280;3249;42.690;23.260;2024-03-22T08:28:40;94501.66;;;9.04;43.53
6433;BME280;3249;42.690;23.260;2024-03-22T08:31:06;94497.19;;;9.37;43.00
6433;BME280;3249;42.690;23.260;2024-03-22T08:33:33;94496.13;;;9.51;43.04
6433;BME280;3249;42.690;23.260;2024-03-22T08:36:00;94505.19;;;9.10;42.72
6433;BME280;3249;42.690;23.260;2024-03-22T08:38:26;94493.59;;;9.45;41.88
6433;BME280;3249;42.690;23.260;2024-03-22T08:40:55;94503.13;;;9.31;43.34
6433;BME280;3249;42.690;23.260;2024-03-22T08:43:22;94496.69;;;9.09;42.55
6433;BME280;3249;42.690;23.260;2024-03-22T08:45:48;94491.94;;;9.06;42.98
6433;BME280;3249;42.690;23.260;2024-03-22T08:48:15;94506.47;;;9.38;41.97
6433;BME280;3249;42.690;23.260;2024-03-22T08:50:42;94507.19;;;9.58;41.41
6433;BME280;3249;42.690;23.260;2024-03-22T08:53:09;94508.69;;;9.79;40.55
6433;BME280;3249;42.690;23.260;2024-03-22T08:55:35;94500.69;;;9.94;40.69
6433;BME280;3249;42.690;23.260;2024-03-22T08:58:04;94496.16;;;9.96;40.39
6433;BME280;3249;42.690;23.260;2024-03-22T09:00:31;94504.97;;;10.13;40.76
6433;BME280;3249;42.690;23.260;2024-03-22T09:02:57;94503.34;;;10.18;40.70
6433;BME280;3249;42.690;23.260;2024-03-22T09:05:24;94506.50;;;10.20;39.69
6433;BME280;3249;42.690;23.260;2024-03-22T09:07:50;94505.84;;;9.94;39.53
6433;BME280;3249;42.690;23.260;2024-03-22T09:10:18;94497.63;;;10.16;38.58
6433;BME280;3249;42.690;23.260;2024-03-22T09:12:44;94493.53;;;10.02;38.87
6433;BME280;3249;42.690;23.260;2024-03-22T09:15:13;94499.13;;;9.93;38.77
6433;BME280;3249;42.690;23.260;2024-03-22T09:17:40;94490.13;;;9.71;39.09
6433;BME280;3249;42.690;23.260;2024-03-22T09:20:07;94491.53;;;10.04;39.23
6433;BME280;3249;42.690;23.260;2024-03-22T09:22:34;94491.09;;;10.14;39.05
6433;BME280;3249;42.690;23.260;2024-03-22T09:25:00;94488.94;;;10.11;39.42
6433;BME280;3249;42.690;23.260;2024-03-22T09:27:27;94490.50;;;10.43;38.12
6433;BME280;3249;42.690;23.260;2024-03-22T09:29:53;94485.78;;;10.40;37.67
6433;BME280;3249;42.690;23.260;2024-03-22T09:32:22;94489.56;;;10.62;37.33
6433;BME280;3249;42.690;23.260;2024-03-22T09:34:49;94484.69;;;10.78;37.70
6433;BME280;3249;42.690;23.260;2024-03-22T09:37:16;94479.31;;;10.80;37.97
6433;BME280;3249;42.690;23.260;2024-03-22T09:39:42;94475.88;;;10.86;37.61
6433;BME280;3249;42.690;23.260;2024-03-22T09:42:12;94487.03;;;10.80;37.54
6433;BME280;3249;42.690;23.260;2024-03-22T09:44:43;94489.09;;;10.71;38.09
6433;BME280;3249;42.690;23.260;2024-03-22T09:47:14;94485.88;;;10.76;37.71
6433;BME280;3249;42.690;23.260;2024-03-22T09:49:44;94458.25;;;10.65;37.70
6433;BME280;3249;42.690;23.260;2024-03-22T09:52:12;94487.03;;;10.80;37.47
6433;BME280;3249;42.690;23.260;2024-03-22T09:54:39;94470.72;;;10.86;37.36
6433;BME280;3249;42.690;23.260;2024-03-22T09:57:09;94478.38;;;10.74;37.63
6433;BME280;3249;42.690;23.260;2024-03-22T09:59:38;94471.66;;;10.91;37.83
6433;BME280;3249;42.690;23.260;2024-03-22T10:02:07;94479.25;;;11.04;36.64
6433;BME280;3249;42.690;23.260;2024-03-22T10:04:34;94459.44;;;11.05;36.54
6433;BME280;3249;42.690;23.260;2024-03-22T10:07:05;94471.75;;;11.21;35.73
6433;BME280;3249;42.690;23.260;2024-03-22T10:09:32;94472.75;;;11.38;35.75
6433;BME280;3249;42.690;23.260;2024-03-22T10:11:58;94469.25;;;11.50;35.58
6433;BME280;3249;42.690;23.260;2024-03-22T10:14:25;94466.91;;;11.13;36.98
6433;BME280;3249;42.690;23.260;2024-03-22T10:16:52;94470.34;;;11.25;36.49
6433;BME280;3249;42.690;23.260;2024-03-22T10:19:19;94463.63;;;11.24;35.55
6433;BME280;3249;42.690;23.260;2024-03-22T10:21:47;94462.53;;;11.31;35.46
6433;BME280;3249;42.690;23.260;2024-03-22T10:24:18;94457.16;;;11.33;36.45
6433;BME280;3249;42.690;23.260;2024-03-22T10:26:45;94455.72;;;11.55;36.30
6433;BME280;3249;42.690;23.260;2024-03-22T10:29:12;94454.88;;;11.61;35.80
6433;BME280;3249;42.690;23.260;2024-03-22T10:31:39;94444.84;;;11.71;35.35
6433;BME280;3249;42.690;23.260;2024-03-22T10:34:06;94446.41;;;11.18;35.26
6433;BME280;3249;42.690;23.260;2024-03-22T10:36:34;94448.41;;;10.98;36.06
6433;BME280;3249;42.690;23.260;2024-03-22T10:41:54;94437.63;;;11.07;35.76
6433;BME280;3249;42.690;23.260;2024-03-22T10:44:21;94431.09;;;11.41;34.73
6433;BME280;3249;42.690;23.260;2024-03-22T10:46:50;94435.94;;;11.49;34.71
6433;BME280;3249;42.690;23.260;2024-03-22T10:49:22;94410.03;;;11.44;36.21
6433;BME280;3249;42.690;23.260;2024-03-22T10:51:52;94435.66;;;11.57;34.14
6433;BME280;3249;42.690;23.260;2024-03-22T10:54:25;94429.53;;;11.40;34.40
6433;BME280;3249;42.690;23.260;2024-03-22T10:56:56;94423.94;;;11.61;34.25
6433;BME280;3249;42.690;23.260;2024-03-22T10:59:23;94377.22;;;11.69;33.22
6433;BME280;3249;42.690;23.260;2024-03-22T11:01:50;94382.00;;;11.95;33.48
6433;BME280;3249;42.690;23.260;2024-03-22T11:04:17;94416.38;;;12.41;33.70
6433;BME280;3249;42.690;23.260;2024-03-22T11:06:47;94421.75;;;12.28;32.84
6433;BME280;3249;42.690;23.260;2024-03-22T11:09:20;94404.22;;;12.07;33.49
6433;BME280;3249;42.690;23.260;2024-03-22T11:11:47;94414.88;;;12.11;32.94
6433;BME280;3249;42.690;23.260;2024-03-22T11:14:16;94411.66;;;12.38;32.89
6433;BME280;3249;42.690;23.260;2024-03-22T11:16:44;94395.06;;;12.46;32.37
6433;BME280;3249;42.690;23.260;2024-03-22T11:19:10;94402.91;;;12.28;32.11
6433;BME280;3249;42.690;23.260;2024-03-22T11:21:37;94403.91;;;12.27;32.17
6433;BME280;3249;42.690;23.260;2024-03-22T11:24:04;94401.84;;;11.65;33.73
6433;BME280;3249;42.690;23.260;2024-03-22T11:27:26;94404.31;;;11.42;34.38
6433;BME280;3249;42.690;23.260;2024-03-22T11:29:53;94398.81;;;11.20;33.86
6433;BME280;3249;42.690;23.260;2024-03-22T11:32:20;94393.97;;;11.60;33.20
6433;BME280;3249;42.690;23.260;2024-03-22T11:34:46;94392.25;;;11.72;33.55
6433;BME280;3249;42.690;23.260;2024-03-22T11:37:32;94394.94;;;12.18;33.36
6433;BME280;3249;42.690;23.260;2024-03-22T11:39:58;94392.25;;;12.36;32.51
6433;BME280;3249;42.690;23.260;2024-03-22T11:42:28;94379.56;;;12.57;32.18
6433;BME280;3249;42.690;23.260;2024-03-22T11:44:54;94390.25;;;12.38;32.41
6433;BME280;3249;42.690;23.260;2024-03-22T11:47:21;94387.16;;;11.95;33.15
6433;BME280;3249;42.690;23.260;2024-03-22T11:49:48;94388.97;;;12.17;32.36
6433;BME280;3249;42.690;23.260;2024-03-22T11:52:15;94385.97;;;12.20;32.37
6433;BME280;3249;42.690;23.260;2024-03-22T11:54:41;94374.94;;;12.13;32.31
6433;BME280;3249;42.690;23.260;2024-03-22T11:57:09;94374.88;;;12.43;31.84
6433;BME280;3249;42.690;23.260;2024-03-22T11:59:40;94367.97;;;12.83;31.69
6433;BME280;3249;42.690;23.260;2024-03-22T12:02:08;94359.09;;;12.90;31.67
6433;BME280;3249;42.690;23.260;2024-03-22T12:04:36;94364.13;;;12.97;31.30
6433;BME280;3249;42.690;23.260;2024-03-22T12:07:21;94361.78;;;12.95;31.13
6433;BME280;3249;42.690;23.260;2024-03-22T12:09:49;94356.38;;;13.08;31.33
6433;BME280;3249;42.690;23.260;2024-03-22T12:12:15;94354.47;;;13.15;31.02
6433;BME280;3249;42.690;23.260;2024-03-22T12:14:44;94356.75;;;13.00;30.69
6433;BME280;3249;42.690;23.260;2024-03-22T12:17:11;94357.13;;;13.20;30.50
6433;BME280;3249;42.690;23.260;2024-03-22T12:19:37;94358.47;;;13.23;30.08
6433;BME280;3249;42.690;23.260;2024-03-22T12:22:04;94335.59;;;12.92;29.61
6433;BME280;3249;42.690;23.260;2024-03-22T12:24:32;94305.94;;;12.55;30.61
6433;BME280;3249;42.690;23.260;2024-03-22T12:26:59;94342.41;;;13.21;30.02
6433;BME280;3249;42.690;23.260;2024-03-22T12:29:26;94339.00;;;13.32;29.94
6433;BME280;3249;42.690;23.260;2024-03-22T12:31:55;94345.56;;;13.51;29.19
6433;BME280;3249;42.690;23.260;2024-03-22T12:34:22;94343.16;;;13.61;29.27
6433;BME280;3249;42.690;23.260;2024-03-22T12:36:48;94338.44;;;13.02;29.70
6433;BME280;3249;42.690;23.260;2024-03-22T12:39:15;94338.88;;;12.99;29.44
6433;BME280;3249;42.690;23.260;2024-03-22T12:41:41;94337.38;;;13.14;29.17
6433;BME280;3249;42.690;23.260;2024-03-22T12:44:08;94333.81;;;12.92;29.28
6433;BME280;3249;42.690;23.260;2024-03-22T12:46:34;94336.03;;;13.12;29.67
6433;BME280;3249;42.690;23.260;2024-03-22T12:49:03;94329.63;;;13.42;28.61
6433;BME280;3249;42.690;23.260;2024-03-22T12:51:30;94330.03;;;13.51;28.96
6433;BME280;3249;42.690;23.260;2024-03-22T12:53:56;94325.63;;;13.79;28.71
6433;BME280;3249;42.690;23.260;2024-03-22T12:56:23;94329.84;;;13.85;28.36
6433;BME280;3249;42.690;23.260;2024-03-22T12:58:49;94328.53;;;14.00;28.39
6433;BME280;3249;42.690;23.260;2024-03-22T13:01:16;94333.31;;;14.08;28.03
6433;BME280;3249;42.690;23.260;2024-03-22T13:03:42;94321.22;;;14.13;28.15
6433;BME280;3249;42.690;23.260;2024-03-22T13:06:11;94327.03;;;14.04;28.60
6433;BME280;3249;42.690;23.260;2024-03-22T13:08:39;94317.22;;;14.06;28.62
6433;BME280;3249;42.690;23.260;2024-03-22T13:11:06;94319.25;;;13.87;28.66
6433;BME280;3249;42.690;23.260;2024-03-22T13:13:33;94316.41;;;13.55;28.44
6433;BME280;3249;42.690;23.260;2024-03-22T13:15:59;94312.66;;;13.63;28.59
6433;BME280;3249;42.690;23.260;2024-03-22T13:18:26;94313.13;;;13.60;28.46
6433;BME280;3249;42.690;23.260;2024-03-22T13:20:52;94312.88;;;13.61;28.97
6433;BME280;3249;42.690;23.260;2024-03-22T13:23:22;94313.41;;;13.47;28.92